Terminal Aerodrome Forecast
Issued by NWS Boston, MA

Home | Current Version | Previous Version | Text Only | Print | Product List | Glossary On
Versions: 1 2 3 4 5 6 7 8 9 10 11 12 13 14 15 16 17 18 19 20 21 22 23 24 25 26 27 28 29 30 31 32 33 34 35 36 37 38 39 40 41 42 43 44 45 46
000
FTUS41 KBOX 261130
TAFBDL
TAF
KBDL 261130Z 2612/2718 19006KT P6SM OVC070
     FM261400 23006KT P6SM VCSH BKN060
     FM261500 24006KT P6SM BKN040
     FM261800 30007KT P6SM SCT040
     FM261900 30008KT P6SM SCT250
     FM270400 34004KT P6SM FEW250=

USA.gov is the U.S. government's official web portal to all federal, state and local government web resources and services.